Time;durP1;ratioP1;P1;durP2;ratioP2;P2;SDS_P1;SDS_P2;PMS_P1;PMS_P2;Temp;Humidity;BMP_temperature;BMP_pressure;BME280_temperature;BME280_humidity;BME280_pressure;Samples;Min_cycle;Max_cycle;Signal;HPM_P1;HPM_P2
2023/05/11 00:00:30;;;;;;;6.68;5.10;;;11.20;99.90;;;;;;4944092;28;20086;-62
2023/05/11 00:02:56;;;;;;;6.35;5.40;;;11.20;99.90;;;;;;4958553;28;20066;-62
2023/05/11 00:05:21;;;;;;;5.70;4.75;;;11.20;99.90;;;;;;4949549;28;20784;-62
2023/05/11 00:07:47;;;;;;;6.35;5.00;;;11.20;99.90;;;;;;4954509;28;20035;-62
2023/05/11 00:10:13;;;;;;;5.95;5.30;;;11.20;99.90;;;;;;4949139;28;20043;-62
2023/05/11 00:12:38;;;;;;;7.32;5.28;;;11.20;99.90;;;;;;4953190;28;20117;-62
2023/05/11 00:15:05;;;;;;;7.35;5.40;;;11.20;99.90;;;;;;4950595;28;20027;-63
2023/05/11 00:17:31;;;;;;;6.78;5.10;;;11.20;99.90;;;;;;4952804;28;20049;-62
2023/05/11 00:19:56;;;;;;;6.30;5.35;;;11.20;99.90;;;;;;4955643;28;20081;-62
2023/05/11 00:22:22;;;;;;;6.80;5.30;;;11.20;99.90;;;;;;4956575;28;20071;-62
2023/05/11 00:24:48;;;;;;;7.55;5.80;;;11.20;99.90;;;;;;4952397;28;20083;-62
2023/05/11 00:27:13;;;;;;;6.22;4.95;;;11.10;99.90;;;;;;4953699;28;20507;-62
2023/05/11 00:29:39;;;;;;;4.93;4.18;;;11.10;99.90;;;;;;4955058;28;20713;-61
2023/05/11 00:32:05;;;;;;;6.43;5.50;;;11.10;99.90;;;;;;4945159;28;20046;-62
2023/05/11 00:34:30;;;;;;;7.45;5.63;;;11.10;99.90;;;;;;4953262;28;20042;-62
2023/05/11 00:36:56;;;;;;;6.13;5.20;;;11.10;99.90;;;;;;4952783;28;20405;-62
2023/05/11 00:39:22;;;;;;;5.88;4.97;;;11.10;99.90;;;;;;4955337;28;20119;-62
2023/05/11 00:41:48;;;;;;;5.60;4.75;;;11.10;99.90;;;;;;4950125;28;20047;-62
2023/05/11 00:44:13;;;;;;;6.55;5.20;;;11.10;99.90;;;;;;4954324;28;20098;-62
2023/05/11 00:46:39;;;;;;;5.15;4.65;;;11.00;99.90;;;;;;4951941;28;20047;-63
2023/05/11 00:49:06;;;;;;;7.75;5.00;;;11.00;99.90;;;;;;4952189;28;20086;-61
2023/05/11 00:51:32;;;;;;;5.78;4.65;;;11.00;99.90;;;;;;4952896;28;20054;-62
2023/05/11 00:53:59;;;;;;;5.95;5.05;;;11.00;99.90;;;;;;4961873;28;20058;-62
2023/05/11 00:56:25;;;;;;;5.75;4.82;;;11.00;99.90;;;;;;4974824;28;20047;-60
2023/05/11 00:58:51;;;;;;;7.28;5.43;;;11.00;99.90;;;;;;4971578;28;20084;-62
2023/05/11 01:01:17;;;;;;;6.85;5.50;;;11.00;99.90;;;;;;4970065;28;20519;-62
2023/05/11 01:03:44;;;;;;;6.38;4.93;;;11.00;99.90;;;;;;4936483;28;20051;-61
2023/05/11 01:06:33;;;;;;;6.88;5.20;;;11.10;99.90;;;;;;4951476;28;20630;-61
2023/05/11 01:09:05;;;;;;;6.55;5.47;;;11.10;99.90;;;;;;4953036;28;20050;-60
2023/05/11 01:11:40;;;;;;;6.43;5.50;;;11.10;99.90;;;;;;4972700;28;20050;-62
2023/05/11 01:14:26;;;;;;;5.80;4.72;;;11.10;99.90;;;;;;4975289;28;20043;-62
2023/05/11 01:16:57;;;;;;;5.97;4.95;;;11.10;99.90;;;;;;4970373;28;20054;-62
2023/05/11 01:19:36;;;;;;;6.80;5.57;;;11.10;99.90;;;;;;4962225;28;20082;-62
2023/05/11 01:22:20;;;;;;;6.07;4.78;;;11.10;99.90;;;;;;4954978;28;20540;-62
2023/05/11 01:25:44;;;;;;;5.38;4.82;;;11.10;99.90;;;;;;4951601;28;20066;-62
2023/05/11 01:28:28;;;;;;;7.40;5.20;;;11.10;99.90;;;;;;4867868;29;20054;-61
2023/05/11 01:30:56;;;;;;;8.40;5.63;;;11.10;99.90;;;;;;4920510;28;20802;-61
2023/05/11 01:33:29;;;;;;;8.60;5.03;;;11.10;99.90;;;;;;4968027;28;20036;-61
2023/05/11 01:36:04;;;;;;;5.10;4.60;;;11.10;99.90;;;;;;4947080;28;20042;-62
2023/05/11 01:38:37;;;;;;;5.10;4.55;;;11.10;99.90;;;;;;4955992;28;20054;-62
2023/05/11 01:41:21;;;;;;;24.52;6.80;;;11.10;99.90;;;;;;4952410;28;20051;-62
2023/05/11 01:43:54;;;;;;;31.23;7.40;;;11.10;99.90;;;;;;4970493;28;20409;-62
2023/05/11 01:46:23;;;;;;;15.23;6.18;;;11.10;99.90;;;;;;4950403;28;20046;-62
2023/05/11 01:48:51;;;;;;;8.30;6.50;;;11.00;99.90;;;;;;4951936;28;20829;-62
2023/05/11 01:51:18;;;;;;;8.60;5.90;;;11.00;99.90;;;;;;4954621;28;20042;-62
2023/05/11 01:53:46;;;;;;;10.50;6.30;;;11.00;99.90;;;;;;4954024;28;20394;-63
2023/05/11 01:56:14;;;;;;;12.70;6.05;;;11.00;99.90;;;;;;4974313;28;20098;-62
2023/05/11 01:58:41;;;;;;;15.52;6.68;;;11.00;99.90;;;;;;4971103;28;20050;-62
2023/05/11 02:01:08;;;;;;;9.20;6.53;;;11.00;99.90;;;;;;4970138;28;20050;-62
2023/05/11 02:03:35;;;;;;;14.13;7.00;;;11.00;99.90;;;;;;4971532;28;20046;-62
2023/05/11 02:06:04;;;;;;;62.42;7.75;;;11.00;99.90;;;;;;4969888;28;20417;-62
2023/05/11 02:08:31;;;;;;;26.20;6.60;;;10.90;99.90;;;;;;4957701;28;20055;-62
2023/05/11 02:10:58;;;;;;;27.90;6.68;;;10.90;99.90;;;;;;4954404;28;20080;-62
2023/05/11 02:13:26;;;;;;;13.88;6.28;;;10.90;99.90;;;;;;4953227;28;20158;-62
2023/05/11 02:15:55;;;;;;;19.02;6.85;;;10.90;99.90;;;;;;4971480;28;20907;-62
2023/05/11 02:18:21;;;;;;;89.82;8.13;;;10.90;99.90;;;;;;4969768;28;20042;-60
2023/05/11 02:20:47;;;;;;;39.70;6.95;;;10.90;99.90;;;;;;4951089;28;20057;-62
2023/05/11 02:23:13;;;;;;;18.67;6.97;;;10.90;99.90;;;;;;4952254;28;20054;-61
2023/05/11 02:25:40;;;;;;;72.47;8.60;;;10.80;99.90;;;;;;4952722;28;20121;-62
2023/05/11 02:28:07;;;;;;;108.60;9.27;;;10.80;99.90;;;;;;4968912;28;20122;-62
2023/05/11 02:30:40;;;;;;;84.75;8.02;;;10.80;99.90;;;;;;4966853;28;20046;-62
2023/05/11 02:33:08;;;;;;;32.30;7.18;;;10.80;99.90;;;;;;4955186;28;21295;-62
2023/05/11 02:35:38;;;;;;;13.18;5.75;;;10.70;99.90;;;;;;4956915;28;20089;-62
2023/05/11 02:38:04;;;;;;;6.85;4.72;;;10.70;99.90;;;;;;4971433;28;20076;-62
2023/05/11 02:40:33;;;;;;;5.90;4.35;;;10.70;99.90;;;;;;4953704;28;20130;-62
2023/05/11 02:43:23;;;;;;;16.05;4.50;;;10.70;99.90;;;;;;4951008;28;20050;-62
2023/05/11 02:45:52;;;;;;;15.82;4.85;;;10.70;99.90;;;;;;4956926;28;20617;-62
2023/05/11 02:48:29;;;;;;;11.65;4.68;;;10.70;99.90;;;;;;4965749;28;24851;-62
2023/05/11 02:50:57;;;;;;;28.50;4.38;;;10.70;99.90;;;;;;4956772;28;20098;-62
2023/05/11 02:53:27;;;;;;;27.25;4.00;;;10.70;99.90;;;;;;4972835;28;20063;-61
2023/05/11 02:55:54;;;;;;;22.17;3.90;;;10.70;99.90;;;;;;4948369;28;20088;-62
2023/05/11 02:58:21;;;;;;;13.63;4.55;;;10.60;99.90;;;;;;4958822;28;20085;-62
2023/05/11 03:00:47;;;;;;;14.38;4.07;;;10.60;99.90;;;;;;4975236;28;20130;-62
2023/05/11 03:03:13;;;;;;;18.55;4.18;;;10.60;99.90;;;;;;4956925;28;20042;-62
2023/05/11 03:05:38;;;;;;;4.75;4.03;;;10.60;99.90;;;;;;4975093;28;20046;-62
2023/05/11 03:08:04;;;;;;;21.35;5.00;;;10.60;99.90;;;;;;4973670;28;20082;-61
2023/05/11 03:10:31;;;;;;;115.70;6.75;;;10.60;99.90;;;;;;4944221;28;20368;-61
2023/05/11 03:12:57;;;;;;;100.00;6.57;;;10.60;99.90;;;;;;4947013;28;20624;-59
2023/05/11 03:15:24;;;;;;;16.00;5.22;;;10.60;99.90;;;;;;4975564;28;20086;-62
2023/05/11 03:17:51;;;;;;;12.77;5.43;;;10.60;99.90;;;;;;4957949;28;20124;-62
2023/05/11 03:20:18;;;;;;;54.35;6.07;;;10.60;99.90;;;;;;4965639;28;20114;-62
2023/05/11 03:22:45;;;;;;;39.97;6.03;;;10.60;99.90;;;;;;4954507;28;20046;-62
2023/05/11 03:25:13;;;;;;;6.68;5.45;;;10.50;99.90;;;;;;4958813;28;20042;-62
2023/05/11 03:27:40;;;;;;;19.02;6.28;;;10.50;99.90;;;;;;4959518;28;20455;-61
2023/05/11 03:30:12;;;;;;;14.90;6.07;;;10.50;99.90;;;;;;4952664;28;20070;-62
2023/05/11 03:32:37;;;;;;;9.35;6.20;;;10.50;99.90;;;;;;4957036;28;20041;-62
2023/05/11 03:35:03;;;;;;;11.07;7.28;;;10.50;99.90;;;;;;4956057;28;20039;-62
2023/05/11 03:37:30;;;;;;;10.70;6.95;;;10.50;99.90;;;;;;4946349;28;20496;-62
2023/05/11 03:39:58;;;;;;;35.30;7.97;;;10.60;99.90;;;;;;4959024;28;20054;-61
2023/05/11 03:42:25;;;;;;;15.52;7.78;;;10.60;99.90;;;;;;4971615;28;20494;-62
2023/05/11 03:44:54;;;;;;;51.97;10.98;;;10.60;99.90;;;;;;4959902;28;20089;-61
2023/05/11 03:47:22;;;;;;;49.20;12.00;;;10.60;99.90;;;;;;4955027;28;20430;-61
2023/05/11 03:49:49;;;;;;;48.38;13.45;;;10.60;99.90;;;;;;4941223;28;20042;-61
2023/05/11 03:52:16;;;;;;;67.95;15.85;;;10.60;99.90;;;;;;4973963;28;20061;-62
2023/05/11 03:54:42;;;;;;;42.33;14.18;;;10.60;99.90;;;;;;4956699;28;20546;-62
2023/05/11 03:57:09;;;;;;;46.78;13.93;;;10.60;99.90;;;;;;4955879;28;20102;-62
2023/05/11 03:59:35;;;;;;;36.55;15.90;;;10.60;99.90;;;;;;4937539;28;20101;-61
2023/05/11 04:02:02;;;;;;;55.72;17.23;;;10.60;99.90;;;;;;4943120;28;20042;-62
2023/05/11 04:04:31;;;;;;;39.13;15.93;;;10.70;99.90;;;;;;4954030;28;20047;-62
2023/05/11 04:06:58;;;;;;;45.85;15.93;;;10.70;99.90;;;;;;4952756;28;20394;-62
2023/05/11 04:09:24;;;;;;;45.35;17.88;;;10.70;99.90;;;;;;4951948;28;20101;-62
2023/05/11 04:11:49;;;;;;;48.20;17.92;;;10.70;99.90;;;;;;4953962;28;20150;-61
2023/05/11 04:14:21;;;;;;;91.07;21.02;;;10.70;99.90;;;;;;4951922;28;20461;-62
2023/05/11 04:16:47;;;;;;;85.38;20.35;;;10.70;99.90;;;;;;4952734;28;20067;-62
2023/05/11 04:19:13;;;;;;;40.92;19.35;;;10.70;99.90;;;;;;4950182;28;20161;-62
2023/05/11 04:21:39;;;;;;;67.68;21.48;;;10.70;99.90;;;;;;4953258;28;20035;-62
2023/05/11 04:24:05;;;;;;;169.00;23.20;;;10.80;99.90;;;;;;4951272;28;20402;-60
2023/05/11 04:26:30;;;;;;;56.97;20.20;;;10.70;99.90;;;;;;4953310;28;20047;-62
2023/05/11 04:28:56;;;;;;;161.60;22.67;;;10.80;99.90;;;;;;4949143;28;20963;-62
2023/05/11 04:31:22;;;;;;;83.75;22.73;;;10.80;99.90;;;;;;4948216;28;20069;-61
2023/05/11 04:33:48;;;;;;;139.80;23.10;;;10.80;99.90;;;;;;4952042;28;20126;-62
2023/05/11 04:36:13;;;;;;;223.23;24.90;;;10.80;99.90;;;;;;4951973;28;20390;-60
2023/05/11 04:38:39;;;;;;;147.15;24.02;;;10.80;99.90;;;;;;4953286;28;20079;-62
2023/05/11 04:41:07;;;;;;;104.63;21.58;;;10.80;99.90;;;;;;4950949;28;20046;-62
2023/05/11 04:43:33;;;;;;;180.52;24.88;;;10.70;99.90;;;;;;4952858;28;20061;-62
2023/05/11 04:45:59;;;;;;;70.85;21.95;;;10.70;99.90;;;;;;4959024;28;20841;-62
2023/05/11 04:48:26;;;;;;;108.50;23.10;;;10.70;99.90;;;;;;4951181;28;20043;-62
2023/05/11 04:50:53;;;;;;;55.58;18.83;;;10.70;99.90;;;;;;4952913;28;20509;-62
2023/05/11 04:53:19;;;;;;;49.38;18.85;;;10.70;99.90;;;;;;4955021;28;20050;-62
2023/05/11 04:55:48;;;;;;;45.08;18.75;;;10.70;99.90;;;;;;4969384;28;20121;-62
2023/05/11 04:58:14;;;;;;;44.28;17.08;;;10.70;99.90;;;;;;4969410;28;20039;-62
2023/05/11 05:00:40;;;;;;;33.00;15.35;;;10.70;99.90;;;;;;4965707;28;20745;-62
2023/05/11 05:03:06;;;;;;;30.67;13.57;;;10.70;99.90;;;;;;4956010;28;20484;-62
2023/05/11 05:05:32;;;;;;;27.73;13.43;;;10.80;99.90;;;;;;4971413;28;20100;-61
2023/05/11 05:07:57;;;;;;;37.38;14.60;;;10.80;99.90;;;;;;4974348;28;20936;-60
2023/05/11 05:10:23;;;;;;;67.20;15.10;;;10.80;99.90;;;;;;4955124;28;20039;-62
2023/05/11 05:12:49;;;;;;;82.07;15.93;;;10.80;99.90;;;;;;4971422;28;20034;-61
2023/05/11 05:15:15;;;;;;;76.57;15.10;;;10.70;99.90;;;;;;4971011;28;20094;-62
2023/05/11 05:17:40;;;;;;;29.83;13.00;;;10.80;99.90;;;;;;4950771;28;20046;-62
2023/05/11 05:20:07;;;;;;;67.38;14.23;;;10.80;99.90;;;;;;4962590;28;20057;-62
2023/05/11 05:22:33;;;;;;;71.03;14.23;;;10.80;99.90;;;;;;4952555;28;20042;-62
2023/05/11 05:24:59;;;;;;;76.05;15.90;;;10.80;99.90;;;;;;4934781;28;20054;-62
2023/05/11 05:27:25;;;;;;;34.72;14.50;;;10.80;99.90;;;;;;4951371;28;20103;-61
2023/05/11 05:29:51;;;;;;;29.75;14.27;;;10.90;99.90;;;;;;4949415;28;20149;-62
2023/05/11 05:32:17;;;;;;;27.98;14.10;;;10.90;99.90;;;;;;4947730;28;20050;-61
2023/05/11 05:34:45;;;;;;;28.60;13.48;;;10.90;99.90;;;;;;4963183;28;20041;-62
2023/05/11 05:37:11;;;;;;;20.45;11.82;;;10.90;99.90;;;;;;4962058;28;20053;-62
2023/05/11 05:39:37;;;;;;;21.75;12.30;;;11.00;99.90;;;;;;4949600;28;20601;-61
2023/05/11 05:42:03;;;;;;;19.38;11.38;;;11.00;99.90;;;;;;4969263;28;20399;-62
2023/05/11 05:44:28;;;;;;;23.88;12.05;;;11.00;99.90;;;;;;4950314;28;20134;-61
2023/05/11 05:46:54;;;;;;;22.95;12.23;;;11.00;99.90;;;;;;4969631;28;20042;-62
2023/05/11 05:49:20;;;;;;;21.38;12.73;;;11.10;99.90;;;;;;4956073;28;20047;-62
2023/05/11 05:51:46;;;;;;;26.85;13.38;;;11.20;99.90;;;;;;4962784;28;22202;-62
2023/05/11 05:54:12;;;;;;;23.73;13.10;;;11.20;99.90;;;;;;4949832;28;20054;-61
2023/05/11 05:56:39;;;;;;;22.50;13.10;;;11.20;99.90;;;;;;4946016;28;20525;-62
2023/05/11 05:59:07;;;;;;;19.52;12.40;;;11.20;99.90;;;;;;4941063;28;20057;-62
2023/05/11 06:01:34;;;;;;;20.45;12.23;;;11.20;99.90;;;;;;4947804;28;20141;-68
2023/05/11 06:04:00;;;;;;;20.77;12.10;;;11.30;99.90;;;;;;4953154;28;20073;-67
2023/05/11 06:06:26;;;;;;;21.30;11.88;;;11.30;99.90;;;;;;4936080;28;20051;-67
2023/05/11 06:08:53;;;;;;;17.00;10.82;;;11.30;99.90;;;;;;4939582;28;20053;-68
2023/05/11 06:11:20;;;;;;;19.92;10.20;;;11.30;99.90;;;;;;4929802;28;20397;-67
2023/05/11 06:13:46;;;;;;;17.05;9.77;;;11.30;99.90;;;;;;4933736;28;20442;-68
2023/05/11 06:16:12;;;;;;;14.85;9.00;;;11.30;99.90;;;;;;4944104;28;20042;-68
2023/05/11 06:18:37;;;;;;;13.95;8.40;;;11.40;99.90;;;;;;4951738;28;20047;-67
2023/05/11 06:21:03;;;;;;;14.65;8.55;;;11.50;99.90;;;;;;4953308;28;20498;-68
2023/05/11 06:23:29;;;;;;;15.52;8.90;;;11.50;99.90;;;;;;4943065;28;20089;-67
2023/05/11 06:25:54;;;;;;;14.25;8.02;;;11.60;99.90;;;;;;4954066;28;20141;-69
2023/05/11 06:28:23;;;;;;;12.90;7.68;;;11.70;99.90;;;;;;4953125;28;20042;-68
2023/05/11 06:30:49;;;;;;;11.98;6.93;;;11.70;99.90;;;;;;4938050;28;20244;-63
2023/05/11 06:33:15;;;;;;;12.52;6.60;;;11.80;99.90;;;;;;4952692;28;20038;-65
2023/05/11 06:35:40;;;;;;;9.93;6.80;;;11.80;99.90;;;;;;4944543;28;20053;-66
2023/05/11 06:38:06;;;;;;;10.23;6.80;;;11.90;99.90;;;;;;4935803;28;20054;-66
2023/05/11 06:40:32;;;;;;;12.15;7.13;;;12.00;99.90;;;;;;4951444;28;20039;-66
2023/05/11 06:42:58;;;;;;;9.32;6.50;;;12.00;99.90;;;;;;4951992;28;20078;-65
2023/05/11 06:45:23;;;;;;;14.07;7.65;;;12.10;99.90;;;;;;4953098;28;20039;-66
2023/05/11 06:47:49;;;;;;;13.38;7.70;;;12.10;99.90;;;;;;4952202;28;20101;-66
2023/05/11 06:50:15;;;;;;;12.73;8.02;;;12.20;99.90;;;;;;4948777;28;20462;-66
2023/05/11 06:52:40;;;;;;;13.00;8.52;;;12.20;99.90;;;;;;4944588;28;20532;-66
2023/05/11 06:55:06;;;;;;;15.50;9.13;;;12.20;99.90;;;;;;4954458;28;20053;-66
2023/05/11 06:57:32;;;;;;;15.57;9.20;;;12.20;99.90;;;;;;4946935;28;20046;-65
2023/05/11 06:59:58;;;;;;;12.70;8.13;;;12.20;99.90;;;;;;4938469;28;20046;-66
2023/05/11 07:02:24;;;;;;;14.52;8.95;;;12.30;99.90;;;;;;4939057;28;20698;-65
2023/05/11 07:04:49;;;;;;;15.65;8.60;;;12.30;99.90;;;;;;4938051;28;20078;-66
2023/05/11 07:07:15;;;;;;;17.40;9.15;;;12.30;99.90;;;;;;4954443;28;20425;-66
2023/05/11 07:09:41;;;;;;;17.05;9.25;;;12.30;99.90;;;;;;4945768;28;20066;-66
2023/05/11 07:12:07;;;;;;;16.30;8.38;;;12.40;99.90;;;;;;4954216;28;20038;-67
2023/05/11 07:14:33;;;;;;;19.48;8.43;;;12.40;99.90;;;;;;4940166;28;20042;-66
2023/05/11 07:16:59;;;;;;;13.35;8.88;;;12.40;99.90;;;;;;4946621;28;20085;-66
2023/05/11 07:19:25;;;;;;;18.73;8.50;;;12.40;99.90;;;;;;4954245;28;20050;-66
2023/05/11 07:21:51;;;;;;;13.18;8.38;;;12.40;99.90;;;;;;4954114;28;20051;-65
2023/05/11 07:24:16;;;;;;;15.90;8.27;;;12.40;99.90;;;;;;4955112;28;20125;-65
2023/05/11 07:26:42;;;;;;;14.60;8.82;;;12.40;99.90;;;;;;4953857;28;20042;-66
2023/05/11 07:29:08;;;;;;;13.32;8.50;;;12.40;99.90;;;;;;4953403;28;20049;-66
2023/05/11 07:31:35;;;;;;;12.60;8.15;;;12.40;99.90;;;;;;4942829;28;20039;-66
2023/05/11 07:34:01;;;;;;;13.82;8.73;;;12.40;99.90;;;;;;4951796;28;20053;-66
2023/05/11 07:36:27;;;;;;;15.40;8.80;;;12.50;99.90;;;;;;4960450;28;20047;-66
2023/05/11 07:38:53;;;;;;;15.02;9.50;;;12.50;99.90;;;;;;4959112;28;20043;-66
2023/05/11 07:41:20;;;;;;;15.20;9.27;;;12.50;99.90;;;;;;4960470;28;20413;-66
2023/05/11 07:43:45;;;;;;;14.77;9.60;;;12.50;99.90;;;;;;4948242;28;20114;-66
2023/05/11 07:46:11;;;;;;;16.33;10.07;;;12.50;99.90;;;;;;4956370;28;20129;-66
2023/05/11 07:48:37;;;;;;;16.92;10.13;;;12.50;99.90;;;;;;4957139;28;20054;-65
2023/05/11 07:51:03;;;;;;;16.30;9.48;;;12.50;99.90;;;;;;4947649;28;20039;-65
2023/05/11 07:53:29;;;;;;;14.98;9.90;;;12.50;99.90;;;;;;4942763;28;20096;-66
2023/05/11 07:55:55;;;;;;;15.70;9.93;;;12.60;99.90;;;;;;4955473;28;20375;-66
2023/05/11 07:58:20;;;;;;;20.50;9.82;;;12.60;99.90;;;;;;4948635;28;20481;-66
2023/05/11 08:00:46;;;;;;;16.75;10.48;;;12.70;99.90;;;;;;4945119;28;20133;-66
2023/05/11 08:03:13;;;;;;;14.43;9.82;;;12.70;99.90;;;;;;4971417;28;20128;-66
2023/05/11 08:05:38;;;;;;;18.05;10.15;;;12.70;99.90;;;;;;4958256;28;20069;-66
2023/05/11 08:08:04;;;;;;;16.92;10.23;;;12.80;99.90;;;;;;4958187;28;20497;-66
2023/05/11 08:10:30;;;;;;;15.30;9.52;;;12.80;99.90;;;;;;4941298;28;20043;-66
2023/05/11 08:12:57;;;;;;;15.80;9.48;;;12.80;99.90;;;;;;4955549;28;20058;-65
2023/05/11 08:15:23;;;;;;;15.32;10.18;;;12.80;99.90;;;;;;4966486;28;20069;-65
2023/05/11 08:17:49;;;;;;;14.38;9.85;;;12.90;99.90;;;;;;4956860;28;20452;-65
2023/05/11 08:20:15;;;;;;;15.90;10.07;;;12.90;99.90;;;;;;4940317;28;20047;-66
2023/05/11 08:22:40;;;;;;;14.52;9.73;;;12.90;99.90;;;;;;4959365;28;20054;-65
2023/05/11 08:25:07;;;;;;;14.05;9.75;;;12.90;99.90;;;;;;4931822;28;20480;-65
2023/05/11 08:27:32;;;;;;;14.65;9.93;;;12.90;99.90;;;;;;4959698;28;20054;-66
2023/05/11 08:29:58;;;;;;;14.65;9.57;;;12.90;99.90;;;;;;4947301;28;20093;-65
2023/05/11 08:32:24;;;;;;;14.27;9.30;;;12.90;99.90;;;;;;4957017;28;20537;-66
2023/05/11 08:34:50;;;;;;;13.23;9.25;;;13.00;99.90;;;;;;4959540;28;20035;-66
2023/05/11 08:37:15;;;;;;;12.48;8.27;;;13.00;99.90;;;;;;4955112;28;20389;-65
2023/05/11 08:39:41;;;;;;;13.40;9.02;;;13.00;99.90;;;;;;4957266;28;20097;-65
2023/05/11 08:42:09;;;;;;;13.05;8.35;;;13.00;99.90;;;;;;4954696;28;20529;-66
2023/05/11 08:44:37;;;;;;;10.98;7.93;;;13.10;99.90;;;;;;4957640;28;20038;-65
2023/05/11 08:47:04;;;;;;;12.73;7.72;;;13.10;99.90;;;;;;4963116;28;20058;-65
2023/05/11 08:49:31;;;;;;;10.15;7.72;;;13.10;99.90;;;;;;4955955;28;20943;-66
2023/05/11 08:51:57;;;;;;;9.73;7.57;;;13.10;99.90;;;;;;4929289;28;20042;-65
2023/05/11 08:54:22;;;;;;;9.73;6.93;;;13.20;99.90;;;;;;4964094;28;20432;-65
2023/05/11 08:56:50;;;;;;;11.00;7.65;;;13.20;99.90;;;;;;4940630;28;20047;-65
2023/05/11 08:59:17;;;;;;;9.65;7.53;;;13.20;99.90;;;;;;4953078;28;20046;-66
2023/05/11 09:01:44;;;;;;;11.13;7.70;;;13.20;99.90;;;;;;4954108;28;20050;-66
2023/05/11 09:04:12;;;;;;;10.50;7.38;;;13.20;99.90;;;;;;4956033;28;20057;-65
2023/05/11 09:06:39;;;;;;;9.90;7.65;;;13.30;99.90;;;;;;4955702;28;20044;-66
2023/05/11 09:09:05;;;;;;;11.05;7.45;;;13.30;99.90;;;;;;4939779;28;20042;-65
2023/05/11 09:11:31;;;;;;;9.77;7.15;;;13.40;99.90;;;;;;4961452;28;20108;-65
2023/05/11 09:13:57;;;;;;;9.95;7.60;;;13.50;99.90;;;;;;4939511;28;20041;-65
2023/05/11 09:16:24;;;;;;;9.68;7.03;;;13.60;99.90;;;;;;4946933;28;20057;-65
2023/05/11 09:18:51;;;;;;;10.23;7.07;;;13.70;99.90;;;;;;4953983;28;20071;-65
2023/05/11 09:21:18;;;;;;;9.95;7.47;;;13.70;99.90;;;;;;4970785;28;20121;-65
2023/05/11 09:23:43;;;;;;;10.20;7.68;;;13.80;99.90;;;;;;4952313;28;20586;-65
2023/05/11 09:26:14;;;;;;;9.95;7.57;;;13.80;99.90;;;;;;4954382;28;20042;-65
2023/05/11 09:28:57;;;;;;;11.05;7.65;;;14.00;99.90;;;;;;4954891;28;20070;-66
2023/05/11 09:31:38;;;;;;;;;;;14.10;99.90;;;;;;4954480;28;20410;-66
2023/05/11 09:34:18;;;;;;;9.23;7.18;;;14.20;99.90;;;;;;4955064;28;19924;-65
2023/05/11 09:36:52;;;;;;;10.20;7.28;;;14.20;99.90;;;;;;4957671;28;20125;-65
2023/05/11 09:39:38;;;;;;;10.15;7.28;;;14.30;99.90;;;;;;4952937;28;20756;-66
2023/05/11 09:42:12;;;;;;;14.07;8.52;;;14.40;99.90;;;;;;4960731;28;20094;-66
2023/05/11 09:44:38;;;;;;;12.07;8.50;;;14.40;99.90;;;;;;4962408;28;20082;-66
2023/05/11 09:47:15;;;;;;;14.07;9.60;;;14.40;99.90;;;;;;4955026;28;20133;-65
2023/05/11 09:49:42;;;;;;;12.57;9.18;;;14.40;99.90;;;;;;4939955;28;20050;-66
2023/05/11 09:52:13;;;;;;;11.90;8.90;;;14.50;99.90;;;;;;4936566;28;20088;-65
2023/05/11 09:54:43;;;;;;;11.52;9.25;;;14.60;99.90;;;;;;4969904;28;20058;-65
2023/05/11 09:57:29;;;;;;;13.48;9.48;;;14.70;99.90;;;;;;4954275;28;20046;-65
2023/05/11 09:59:57;;;;;;;11.85;9.10;;;14.80;99.90;;;;;;4956735;28;20518;-65
2023/05/11 10:02:27;;;;;;;13.10;9.82;;;15.00;99.90;;;;;;4953758;28;20050;-65
2023/05/11 10:04:58;;;;;;;12.93;9.50;;;15.10;99.90;;;;;;4954574;28;20038;-65
2023/05/11 10:07:30;;;;;;;12.57;8.85;;;15.30;99.90;;;;;;4953211;28;20053;-65
2023/05/11 10:09:57;;;;;;;;;;;15.60;99.90;;;;;;4947755;28;20138;-65
2023/05/11 10:12:24;;;;;;;14.55;9.32;;;15.80;99.90;;;;;;4954447;28;19918;-65
2023/05/11 10:14:53;;;;;;;11.35;9.48;;;15.80;99.90;;;;;;4938623;28;20039;-65
2023/05/11 10:17:20;;;;;;;11.20;9.63;;;15.90;99.90;;;;;;4953253;28;20591;-65
2023/05/11 10:19:47;;;;;;;12.57;9.10;;;16.00;99.90;;;;;;4953658;28;20445;-65
2023/05/11 10:22:15;;;;;;;11.05;8.57;;;16.10;99.90;;;;;;4951719;28;20535;-66
2023/05/11 10:24:41;;;;;;;12.60;9.05;;;16.20;99.90;;;;;;4964524;28;20449;-65
2023/05/11 10:27:07;;;;;;;11.15;7.63;;;16.20;99.90;;;;;;4949205;28;20046;-65
2023/05/11 10:29:34;;;;;;;9.07;7.68;;;16.20;99.90;;;;;;4961779;28;20516;-65
2023/05/11 10:32:01;;;;;;;8.85;7.40;;;16.20;99.90;;;;;;4938822;28;20481;-65
2023/05/11 10:34:27;;;;;;;11.32;7.90;;;16.20;99.90;;;;;;4937403;28;20047;-65
2023/05/11 10:36:55;;;;;;;14.40;7.85;;;16.20;99.90;;;;;;4972772;28;20150;-65
2023/05/11 10:39:21;;;;;;;9.35;7.90;;;16.20;99.90;;;;;;4954284;28;20053;-65
2023/05/11 10:42:05;;;;;;;10.25;7.68;;;16.20;99.90;;;;;;4955566;28;20054;-65
2023/05/11 10:45:10;;;;;;;9.23;7.28;;;16.30;99.90;;;;;;4940754;28;20392;-65
2023/05/11 10:48:10;;;;;;;9.18;7.55;;;16.30;99.90;;;;;;4955144;28;20940;-65
2023/05/11 10:51:11;;;;;;;8.38;6.85;;;16.50;99.90;;;;;;4954852;28;20038;-65
2023/05/11 10:53:48;;;;;;;7.35;6.40;;;16.60;99.90;;;;;;4871081;29;20108;-65
2023/05/11 10:56:36;;;;;;;6.30;5.68;;;16.60;99.90;;;;;;4947615;28;20101;-65
2023/05/11 10:59:40;;;;;;;7.45;6.03;;;16.70;99.90;;;;;;4955794;28;20371;-65
2023/05/11 11:02:07;;;;;;;10.85;6.25;;;16.80;99.90;;;;;;4960114;28;20072;-65
2023/05/11 11:04:47;;;;;;;7.60;5.38;;;17.00;99.90;;;;;;4952519;28;20051;-65
2023/05/11 11:07:17;;;;;;;6.05;5.05;;;17.10;99.90;;;;;;4953178;28;20092;-65
2023/05/11 11:09:54;;;;;;;5.47;4.65;;;17.10;99.90;;;;;;4953732;28;20049;-65
2023/05/11 11:12:22;;;;;;;6.60;5.03;;;17.20;99.90;;;;;;4955695;28;20050;-65
2023/05/11 11:15:05;;;;;;;6.15;5.05;;;17.30;99.90;;;;;;4948632;28;20046;-65
2023/05/11 11:17:35;;;;;;;5.10;4.60;;;17.40;99.90;;;;;;4957392;28;20042;-65
2023/05/11 11:20:06;;;;;;;4.57;4.10;;;17.40;99.90;;;;;;4956691;28;20065;-65
2023/05/11 11:22:35;;;;;;;4.72;4.22;;;17.40;99.90;;;;;;4949512;28;20124;-65
2023/05/11 11:25:05;;;;;;;4.13;3.63;;;17.40;99.90;;;;;;4961316;28;20045;-65
2023/05/11 11:27:40;;;;;;;4.95;3.83;;;17.40;99.90;;;;;;4956349;28;20043;-65
2023/05/11 11:30:19;;;;;;;5.15;4.28;;;17.40;99.90;;;;;;4956815;28;20785;-65
2023/05/11 11:32:46;;;;;;;4.45;3.92;;;17.40;99.90;;;;;;4957730;28;20803;-65
2023/05/11 11:35:40;;;;;;;6.47;4.22;;;17.40;99.90;;;;;;4957753;28;20039;-65
2023/05/11 11:38:07;;;;;;;4.43;3.65;;;17.40;99.90;;;;;;4959351;28;20045;-65
2023/05/11 11:40:44;;;;;;;5.07;3.90;;;17.50;99.90;;;;;;4958336;28;20046;-65
2023/05/11 11:43:17;;;;;;;3.97;3.58;;;17.60;99.90;;;;;;4951003;28;20051;-65
2023/05/11 11:45:52;;;;;;;3.83;3.03;;;17.90;99.90;;;;;;4950332;28;20462;-63
2023/05/11 11:48:36;;;;;;;4.60;3.03;;;18.20;99.90;;;;;;4957556;28;20833;-63
2023/05/11 11:51:09;;;;;;;3.38;3.00;;;18.20;99.90;;;;;;4952907;28;20050;-64
2023/05/11 11:53:42;;;;;;;3.65;2.72;;;18.20;99.90;;;;;;4951116;28;20560;-62
2023/05/11 11:56:14;;;;;;;4.32;2.85;;;18.30;99.90;;;;;;4956058;28;20054;-62
2023/05/11 11:58:45;;;;;;;2.77;2.40;;;18.30;99.90;;;;;;4958323;28;20112;-62
2023/05/11 12:01:13;;;;;;;6.80;2.05;;;18.50;99.90;;;;;;4966382;28;20317;-62
2023/05/11 12:03:40;;;;;;;3.47;2.50;;;18.40;99.90;;;;;;4971978;28;20058;-63
2023/05/11 12:06:08;;;;;;;3.22;2.28;;;18.40;99.90;;;;;;4957044;28;20129;-63
2023/05/11 12:08:35;;;;;;;4.15;2.20;;;18.30;99.90;;;;;;4956002;28;20295;-62
2023/05/11 12:11:03;;;;;;;2.65;2.03;;;18.30;99.90;;;;;;4958376;28;20551;-63
2023/05/11 12:13:29;;;;;;;1.70;1.60;;;18.30;99.90;;;;;;4960533;28;20047;-63
2023/05/11 12:16:08;;;;;;;2.63;2.20;;;18.20;99.90;;;;;;4956765;28;20747;-64
2023/05/11 12:18:34;;;;;;;2.75;2.30;;;18.20;99.90;;;;;;4948254;28;20057;-63
2023/05/11 12:21:01;;;;;;;2.60;2.40;;;18.30;99.90;;;;;;4951060;28;20043;-63
2023/05/11 12:23:27;;;;;;;2.90;2.33;;;18.40;99.90;;;;;;4947393;28;20177;-63
2023/05/11 12:26:03;;;;;;;4.00;1.90;;;18.60;99.90;;;;;;4927045;28;20050;-64
2023/05/11 12:28:29;;;;;;;6.80;3.10;;;18.70;99.90;;;;;;4950064;28;20484;-62
2023/05/11 12:30:56;;;;;;;3.92;3.58;;;18.70;99.90;;;;;;4933906;28;20043;-62
2023/05/11 12:33:22;;;;;;;4.20;3.70;;;18.70;99.90;;;;;;4949239;28;20146;-63
2023/05/11 12:35:52;;;;;;;6.22;4.70;;;18.80;99.90;;;;;;4937730;28;20042;-63
2023/05/11 12:38:18;;;;;;;5.10;4.60;;;18.70;99.90;;;;;;4957858;28;20097;-62
2023/05/11 12:40:51;;;;;;;5.03;3.90;;;18.70;99.90;;;;;;4957910;28;20137;-63
2023/05/11 12:43:21;;;;;;;4.88;4.38;;;18.60;99.90;;;;;;4937811;28;20055;-64
2023/05/11 12:45:47;;;;;;;5.78;5.18;;;18.60;99.90;;;;;;4958475;28;20050;-63